createdAt,value
2016-04-14T00:00:13.873Z,36.01
2016-04-14T00:01:13.814Z,35.91
2016-04-14T00:02:13.769Z,36.01
2016-04-14T00:03:13.741Z,35.82
2016-04-14T00:04:13.993Z,36.2
2016-04-14T00:05:13.636Z,35.82
2016-04-14T00:06:13.593Z,35.91
2016-04-14T00:07:13.533Z,35.82
2016-04-14T00:08:16.488Z,35.72
2016-04-14T00:09:13.661Z,36.01
2016-04-14T00:10:13.352Z,35.72
2016-04-14T00:11:13.354Z,35.91
2016-04-14T00:12:13.325Z,36.01
2016-04-14T00:13:13.250Z,35.91
2016-04-14T00:14:13.221Z,35.82
2016-04-14T00:15:13.177Z,35.91
2016-04-14T00:16:13.118Z,35.91
2016-04-14T00:17:16.088Z,36.01
2016-04-14T00:18:13.232Z,35.91
2016-04-14T00:19:12.985Z,35.72
2016-04-14T00:20:14.113Z,35.72
2016-04-14T00:21:12.881Z,35.91
2016-04-14T00:22:12.852Z,35.72
2016-04-14T00:23:12.793Z,35.72
2016-04-14T00:24:15.764Z,35.91
2016-04-14T00:25:12.735Z,35.91
2016-04-14T00:26:13.050Z,35.91
2016-04-14T00:27:12.601Z,35.72
2016-04-14T00:28:12.572Z,35.82
2016-04-14T00:29:12.511Z,35.82
2016-04-14T00:30:12.468Z,35.72
2016-04-14T00:31:15.423Z,35.82
2016-04-14T00:32:12.363Z,35.91
2016-04-14T00:33:12.336Z,35.82
2016-04-14T00:34:12.306Z,35.53
2016-04-14T00:35:12.231Z,35.43
2016-04-14T00:36:12.191Z,35.63
2016-04-14T00:37:12.134Z,35.63
2016-04-14T00:38:12.293Z,35.72
2016-04-14T00:39:12.046Z,35.63
2016-04-14T00:40:15.017Z,35.72
2016-04-14T00:41:14.941Z,35.72
2016-04-14T00:42:12.148Z,35.63
2016-04-14T00:43:11.853Z,35.53
2016-04-14T00:44:14.824Z,35.63
2016-04-14T00:45:11.765Z,35.53
2016-04-14T00:46:11.721Z,35.43
2016-04-14T00:47:11.677Z,35.72
2016-04-14T00:48:11.632Z,35.53
2016-04-14T00:49:17.604Z,35.72
2016-04-14T00:50:14.529Z,35.72
2016-04-14T00:51:14.484Z,35.72
2016-04-14T00:52:11.439Z,35.91
2016-04-14T00:53:14.396Z,35.72
2016-04-14T00:54:11.555Z,35.63
2016-04-14T00:55:11.339Z,35.63
2016-04-14T00:56:11.247Z,35.82
2016-04-14T00:57:11.406Z,35.91
2016-04-14T00:58:14.159Z,35.82
2016-04-14T00:59:14.114Z,35.82
2016-04-14T01:00:11.055Z,35.91
2016-04-14T01:01:11.011Z,35.72
2016-04-14T01:02:10.966Z,35.72
2016-04-14T01:03:10.938Z,35.72
2016-04-14T01:04:10.878Z,35.82
2016-04-14T01:05:10.818Z,35.82
2016-04-14T01:06:10.791Z,35.72
2016-04-14T01:07:10.746Z,35.63
2016-04-14T01:08:10.702Z,35.82
2016-04-14T01:09:10.641Z,35.82
2016-04-14T01:10:13.613Z,35.72
2016-04-14T01:11:13.554Z,36.01
2016-04-14T01:12:13.540Z,35.91
2016-04-14T01:13:10.465Z,35.72
2016-04-14T01:14:12.687Z,35.72
2016-04-14T01:15:13.376Z,35.72
2016-04-14T01:16:10.317Z,35.82
2016-04-14T01:17:10.273Z,35.72
2016-04-14T01:18:13.263Z,35.82
2016-04-14T01:19:10.163Z,35.82
2016-04-14T01:20:10.119Z,35.72
2016-04-14T01:21:10.075Z,35.82
2016-04-14T01:22:10.233Z,35.82
2016-04-14T01:23:09.986Z,35.82
2016-04-14T01:24:09.973Z,35.91
2016-04-14T01:25:09.944Z,35.72
2016-04-14T01:26:10.057Z,35.72
2016-04-14T01:27:09.794Z,35.91
2016-04-14T01:28:09.749Z,35.91
2016-04-14T01:29:09.549Z,35.72
2016-04-14T01:30:09.958Z,35.82
2016-04-14T01:31:09.601Z,35.91
2016-04-14T01:32:12.589Z,35.82
2016-04-14T01:33:09.841Z,35.82
2016-04-14T01:34:09.469Z,35.91
2016-04-14T01:35:09.409Z,35.82
2016-04-14T01:36:09.365Z,35.72
2016-04-14T01:37:09.337Z,35.91
2016-04-14T01:38:09.292Z,35.72
2016-04-14T01:39:09.248Z,35.72
2016-04-14T01:40:09.485Z,35.91
2016-04-14T01:41:09.143Z,35.91
2016-04-14T01:42:09.100Z,35.82
2016-04-14T01:43:12.056Z,35.72
2016-04-14T01:44:08.996Z,35.82
2016-04-14T01:45:11.967Z,35.82
2016-04-14T01:46:08.892Z,35.72
2016-04-14T01:47:08.863Z,35.82
2016-04-14T01:48:08.819Z,35.82
2016-04-14T01:49:08.775Z,35.82
2016-04-14T01:50:08.731Z,35.82
2016-04-14T01:51:11.686Z,35.72
2016-04-14T01:52:08.627Z,35.63
2016-04-14T01:53:08.583Z,35.91
2016-04-14T01:54:08.538Z,35.72
2016-04-14T01:55:08.541Z,35.72
2016-04-14T01:56:08.449Z,35.72
2016-04-14T01:57:08.391Z,35.72
2016-04-14T01:58:08.346Z,35.72
2016-04-14T01:59:11.317Z,35.72
2016-04-14T02:00:11.258Z,35.72
2016-04-14T02:01:08.197Z,35.82
2016-04-14T02:02:08.154Z,35.63
2016-04-14T02:03:08.110Z,35.82
2016-04-14T02:04:08.065Z,35.82
2016-04-14T02:05:08.021Z,35.72
2016-04-14T02:06:08.007Z,35.82
2016-04-14T02:07:07.917Z,35.82
2016-04-14T02:08:11.279Z,35.82
2016-04-14T02:09:07.829Z,35.82
2016-04-14T02:10:16.846Z,35.82
2016-04-14T02:11:07.740Z,35.72
2016-04-14T02:12:07.680Z,35.82
2016-04-14T02:13:07.636Z,35.82
2016-04-14T02:14:07.592Z,35.72
2016-04-14T02:15:07.579Z,35.82
2016-04-14T02:16:16.504Z,35.82
2016-04-14T02:17:10.570Z,35.82
2016-04-14T02:18:10.478Z,35.91
2016-04-14T02:19:07.355Z,35.72
2016-04-14T02:20:07.312Z,35.72
2016-04-14T02:21:07.267Z,35.72
2016-04-14T02:22:07.239Z,35.72
2016-04-14T02:23:07.179Z,35.91
2016-04-14T02:24:10.134Z,35.72
2016-04-14T02:25:10.512Z,35.82
2016-04-14T02:26:10.030Z,35.72
2016-04-14T02:27:13.033Z,35.82
2016-04-14T02:28:07.144Z,35.72
2016-04-14T02:29:06.883Z,35.72
2016-04-14T02:30:09.854Z,35.91
2016-04-14T02:31:06.996Z,35.72
2016-04-14T02:32:06.750Z,35.72
2016-04-14T02:33:09.705Z,35.91
2016-04-14T02:34:06.661Z,35.82
2016-04-14T02:35:06.618Z,35.91
2016-04-14T02:36:09.557Z,36.11
2016-04-14T02:37:06.544Z,35.72
2016-04-14T02:38:06.469Z,35.72
2016-04-14T02:39:06.424Z,35.63
2016-04-14T02:40:06.381Z,35.82
2016-04-14T02:41:06.337Z,35.82
2016-04-14T02:42:09.276Z,35.82
2016-04-14T02:43:06.217Z,35.82
2016-04-14T02:44:06.595Z,35.72
2016-04-14T02:45:06.128Z,35.82
2016-04-14T02:46:06.084Z,35.72
2016-04-14T02:47:06.040Z,35.72
2016-04-14T02:48:06.058Z,35.72
2016-04-14T02:49:05.951Z,35.82
2016-04-14T02:50:05.908Z,35.72
2016-04-14T02:51:05.863Z,35.82
2016-04-14T02:52:09.023Z,35.63
2016-04-14T02:53:05.759Z,35.72
2016-04-14T02:54:08.731Z,35.72
2016-04-14T02:55:05.671Z,35.72
2016-04-14T02:56:05.830Z,35.72
2016-04-14T02:57:05.567Z,35.63
2016-04-14T02:58:05.538Z,35.63
2016-04-14T02:59:05.494Z,35.63
2016-04-14T03:00:08.450Z,35.63
2016-04-14T03:01:05.391Z,35.43
2016-04-14T03:02:05.346Z,35.63
2016-04-14T03:03:05.286Z,35.53
2016-04-14T03:04:05.241Z,35.53
2016-04-14T03:05:05.214Z,35.63
2016-04-14T03:06:05.451Z,35.63
2016-04-14T03:07:05.109Z,35.53
2016-04-14T03:08:05.066Z,35.72
2016-04-14T03:09:05.005Z,35.53
2016-04-14T03:10:05.165Z,35.53
2016-04-14T03:11:04.932Z,35.53
2016-04-14T03:12:04.873Z,35.63
2016-04-14T03:13:04.828Z,35.63
2016-04-14T03:14:04.801Z,35.53
2016-04-14T03:15:04.725Z,35.53
2016-04-14T03:16:04.695Z,35.63
2016-04-14T03:17:04.652Z,35.53
2016-04-14T03:18:04.592Z,35.53
2016-04-14T03:19:04.548Z,35.63
2016-04-14T03:20:04.504Z,35.63
2016-04-14T03:21:04.444Z,35.53
2016-04-14T03:22:04.400Z,35.63
2016-04-14T03:23:04.372Z,35.63
2016-04-14T03:24:04.311Z,35.53
2016-04-14T03:25:04.267Z,35.63
2016-04-14T03:26:04.208Z,35.63
2016-04-14T03:27:07.397Z,35.63
2016-04-14T03:28:04.198Z,35.63
2016-04-14T03:29:04.075Z,35.63
2016-04-14T03:30:07.047Z,35.63
2016-04-14T03:31:03.971Z,35.43
2016-04-14T03:32:03.927Z,35.43
2016-04-14T03:33:03.883Z,35.53
2016-04-14T03:34:03.838Z,35.53
2016-04-14T03:35:03.794Z,35.72
2016-04-14T03:36:06.749Z,35.53
2016-04-14T03:37:03.737Z,35.63
2016-04-14T03:38:03.662Z,35.43
2016-04-14T03:39:03.602Z,35.63
2016-04-14T03:40:03.557Z,35.53
2016-04-14T03:41:03.513Z,35.53
2016-04-14T03:42:06.469Z,35.43
2016-04-14T03:43:03.425Z,35.53
2016-04-14T03:44:03.381Z,35.43
2016-04-14T03:45:06.321Z,35.43
2016-04-14T03:46:03.276Z,35.53
2016-04-14T03:47:03.546Z,35.43
2016-04-14T03:48:03.189Z,35.43
2016-04-14T03:49:03.128Z,35.53
2016-04-14T03:50:03.101Z,35.43
2016-04-14T03:51:03.056Z,35.43
2016-04-14T03:52:03.012Z,35.53
2016-04-14T03:53:08.952Z,35.63
2016-04-14T03:54:02.908Z,35.53
2016-04-14T03:55:02.864Z,35.63
2016-04-14T03:56:02.804Z,35.53
2016-04-14T03:57:02.775Z,35.53
2016-04-14T03:58:02.715Z,35.53
2016-04-14T03:59:05.686Z,35.53
2016-04-14T04:00:02.627Z,35.63
2016-04-14T04:01:02.567Z,35.63
2016-04-14T04:02:02.522Z,35.43
2016-04-14T04:03:02.479Z,35.63
2016-04-14T04:04:02.419Z,35.53
2016-04-14T04:05:02.390Z,35.63
2016-04-14T04:06:02.658Z,35.43
2016-04-14T04:07:02.286Z,35.43
2016-04-14T04:08:02.242Z,35.72
2016-04-14T04:09:02.246Z,35.53
2016-04-14T04:10:02.216Z,35.63
2016-04-14T04:11:02.109Z,35.63
2016-04-14T04:12:02.050Z,35.43
2016-04-14T04:13:02.021Z,35.53
2016-04-14T04:14:01.962Z,35.43
2016-04-14T04:15:01.918Z,35.63
2016-04-14T04:16:04.873Z,35.72
2016-04-14T04:17:01.829Z,35.63
2016-04-14T04:18:01.785Z,35.53
2016-04-14T04:19:04.725Z,35.53
2016-04-14T04:20:01.681Z,35.72
2016-04-14T04:21:01.637Z,35.53
2016-04-14T04:22:01.577Z,35.63
2016-04-14T04:23:01.736Z,35.63
2016-04-14T04:24:01.520Z,35.63
2016-04-14T04:25:01.444Z,35.63
2016-04-14T04:26:04.478Z,35.72
2016-04-14T04:27:01.559Z,35.63
2016-04-14T04:28:04.312Z,35.43
2016-04-14T04:29:01.267Z,35.63
2016-04-14T04:30:01.222Z,35.63
2016-04-14T04:31:01.164Z,35.24
2016-04-14T04:32:04.135Z,35.34
2016-04-14T04:33:04.075Z,35.53
2016-04-14T04:34:01.219Z,35.63
2016-04-14T04:35:04.190Z,35.63
2016-04-14T04:36:00.927Z,35.72
2016-04-14T04:37:01.086Z,35.24
2016-04-14T04:38:00.838Z,35.72
2016-04-14T04:39:00.794Z,35.63
2016-04-14T04:40:00.937Z,35.63
2016-04-14T04:41:03.987Z,35.24
2016-04-14T04:42:03.646Z,35.63
2016-04-14T04:43:00.602Z,35.24
2016-04-14T04:44:00.557Z,35.14
2016-04-14T04:45:09.529Z,35.63
2016-04-14T04:46:00.470Z,35.24
2016-04-14T04:47:00.409Z,35.63
2016-04-14T04:48:00.365Z,35.24
2016-04-14T04:49:00.321Z,35.05
2016-04-14T04:50:00.276Z,35.24
2016-04-14T04:51:00.233Z,35.14
2016-04-14T04:52:03.204Z,35.72
2016-04-14T04:53:00.145Z,35.24
2016-04-14T04:54:00.084Z,35.24
2016-04-14T04:55:00.040Z,35.14
2016-04-14T04:56:00.090Z,35.14
2016-04-14T04:56:59.936Z,35.14
2016-04-14T04:57:59.908Z,35.14
2016-04-14T04:59:00.050Z,35.24
2016-04-14T04:59:59.803Z,35.63
2016-04-14T05:00:59.761Z,35.63
2016-04-14T05:01:59.731Z,35.14
2016-04-14T05:02:59.671Z,35.24
2016-04-14T05:03:59.612Z,35.05
2016-04-14T05:04:59.567Z,35.14
2016-04-14T05:05:59.539Z,35.14
2016-04-14T05:07:02.479Z,35.24
2016-04-14T05:07:59.654Z,35.14
2016-04-14T05:09:02.406Z,35.05
2016-04-14T05:09:59.331Z,34.95
2016-04-14T05:10:59.365Z,34.95
2016-04-14T05:11:59.243Z,35.05
2016-04-14T05:12:59.213Z,35.05
2016-04-14T05:13:59.510Z,34.95
2016-04-14T05:14:59.197Z,35.14
2016-04-14T05:15:59.198Z,34.95
2016-04-14T05:16:59.199Z,34.86
2016-04-14T05:18:02.173Z,35.34
2016-04-14T05:18:59.162Z,34.86
2016-04-14T05:19:59.117Z,34.86
2016-04-14T05:20:59.090Z,34.76
2016-04-14T05:21:59.265Z,34.67
2016-04-14T05:22:59.046Z,35.43
2016-04-14T05:23:58.992Z,35.53
2016-04-14T05:24:58.937Z,35.63
2016-04-14T05:26:05.070Z,35.43
2016-04-14T05:27:01.876Z,35.53
2016-04-14T05:27:58.822Z,35.05
2016-04-14T05:28:58.780Z,34.86
2016-04-14T05:29:58.721Z,34.86
2016-04-14T05:30:58.899Z,35.05
2016-04-14T05:31:58.654Z,34.86
2016-04-14T05:32:58.596Z,34.95
2016-04-14T05:34:01.568Z,35.05
2016-04-14T05:35:01.493Z,35.05
2016-04-14T05:35:58.451Z,34.95
2016-04-14T05:36:58.407Z,34.95
2016-04-14T05:37:58.363Z,35.43
2016-04-14T05:38:58.319Z,34.95
2016-04-14T05:39:58.275Z,35.43
2016-04-14T05:40:58.293Z,34.95
2016-04-14T05:41:58.186Z,35.53
2016-04-14T05:42:58.141Z,35.53
2016-04-14T05:43:58.098Z,34.86
2016-04-14T05:44:58.038Z,35.43
2016-04-14T05:45:57.994Z,34.76
2016-04-14T05:46:57.950Z,34.76
2016-04-14T05:47:57.905Z,35.63
2016-04-14T05:48:57.846Z,35.63
2016-04-14T05:49:57.818Z,35.14
2016-04-14T05:51:00.773Z,35.05
2016-04-14T05:51:57.745Z,35.05
2016-04-14T05:53:00.669Z,35.24
2016-04-14T05:53:57.609Z,34.95
2016-04-14T05:54:57.565Z,34.76
2016-04-14T05:55:57.520Z,34.76
2016-04-14T05:56:57.492Z,34.86
2016-04-14T05:57:57.636Z,34.95
2016-04-14T05:59:00.389Z,35.24
2016-04-14T05:59:57.329Z,34.86
2016-04-14T06:01:00.300Z,34.95
2016-04-14T06:02:00.256Z,34.94
2016-04-14T06:02:57.212Z,35.63
2016-04-14T06:03:56.995Z,34.76
2016-04-14T06:04:57.108Z,35.63
2016-04-14T06:05:57.047Z,34.76
2016-04-14T06:06:57.019Z,34.86
2016-04-14T06:07:59.974Z,34.95
2016-04-14T06:08:57.118Z,35.43
2016-04-14T06:09:59.855Z,35.53
2016-04-14T06:10:56.826Z,34.95
2016-04-14T06:11:56.782Z,34.95
2016-04-14T06:12:56.722Z,34.86
2016-04-14T06:13:56.662Z,34.86
2016-04-14T06:14:56.649Z,35.63
2016-04-14T06:15:56.574Z,34.95
2016-04-14T06:16:56.530Z,34.95
2016-04-14T06:17:56.485Z,34.95
2016-04-14T06:18:56.458Z,35.43
2016-04-14T06:19:56.398Z,35.63
2016-04-14T06:20:56.354Z,35.53
2016-04-14T06:21:56.340Z,35.05
2016-04-14T06:22:56.265Z,35.14
2016-04-14T06:23:56.206Z,34.86
2016-04-14T06:24:56.162Z,35.34
2016-04-14T06:25:56.118Z,35.24
2016-04-14T06:26:56.073Z,34.86
2016-04-14T06:27:56.029Z,35.24
2016-04-14T06:28:55.970Z,34.57
2016-04-14T06:29:55.940Z,34.95
2016-04-14T06:30:55.881Z,34.57
2016-04-14T06:31:55.836Z,34.95
2016-04-14T06:32:55.776Z,34.95
2016-04-14T06:33:55.575Z,35.05
2016-04-14T06:34:55.688Z,34.86
2016-04-14T06:35:55.644Z,35.05
2016-04-14T06:36:55.583Z,34.95
2016-04-14T06:37:55.539Z,34.86
2016-04-14T06:38:55.496Z,35.05
2016-04-14T06:39:55.452Z,35.14
2016-04-14T06:40:55.423Z,34.95
2016-04-14T06:41:55.347Z,35.24
2016-04-14T06:42:58.335Z,34.95
2016-04-14T06:43:55.259Z,35.53
2016-04-14T06:44:55.215Z,35.53
2016-04-14T06:45:55.186Z,35.63
2016-04-14T06:46:58.143Z,34.86
2016-04-14T06:47:55.082Z,34.95
2016-04-14T06:48:58.038Z,35.05
2016-04-14T06:49:57.993Z,34.86
2016-04-14T06:50:54.934Z,35.05
2016-04-14T06:51:54.906Z,35.43
2016-04-14T06:52:55.065Z,34.86
2016-04-14T06:53:55.037Z,34.95
2016-04-14T06:54:54.757Z,35.53
2016-04-14T06:55:54.792Z,35.53
2016-04-14T06:56:54.685Z,35.53
2016-04-14T06:57:54.625Z,34.95
2016-04-14T06:58:54.566Z,34.95
2016-04-14T06:59:54.521Z,34.86
2016-04-14T07:00:54.477Z,35.34
2016-04-14T07:01:54.637Z,34.95
2016-04-14T07:02:54.373Z,34.95
2016-04-14T07:03:54.330Z,34.94
2016-04-14T07:05:03.520Z,35.05
2016-04-14T07:05:54.241Z,34.95
2016-04-14T07:06:54.193Z,34.95
2016-04-14T07:07:54.148Z,34.95
2016-04-14T07:08:57.098Z,35.13
2016-04-14T07:09:54.053Z,34.95
2016-04-14T07:10:54.014Z,35.05
2016-04-14T07:11:53.847Z,34.95
2016-04-14T07:12:53.927Z,35.14
2016-04-14T07:13:54.063Z,35.22
2016-04-14T07:14:53.735Z,35.61
2016-04-14T07:15:53.768Z,35.63
2016-04-14T07:16:54.335Z,35.61
2016-04-14T07:17:53.536Z,35.63
2016-04-14T07:18:56.682Z,35.13
2016-04-14T07:19:53.635Z,35.14
2016-04-14T07:20:53.528Z,35.61
2016-04-14T07:21:53.484Z,35.24
2016-04-14T07:22:53.440Z,35.61
2016-04-14T07:23:53.395Z,35.14
2016-04-14T07:24:53.351Z,35.05
2016-04-14T07:25:53.307Z,35.14
2016-04-14T07:26:53.559Z,35.14
2016-04-14T07:27:53.406Z,35.53
2016-04-14T07:28:53.173Z,35.51
2016-04-14T07:29:53.130Z,35.61
2016-04-14T07:30:56.089Z,35.61
2016-04-14T07:31:53.011Z,35.14
2016-04-14T07:32:53.419Z,35.03
2016-04-14T07:33:52.937Z,35.14
2016-04-14T07:34:52.878Z,35.22
2016-04-14T07:35:53.036Z,35.63
2016-04-14T07:36:52.820Z,35.61
2016-04-14T07:37:52.761Z,35.61
2016-04-14T07:38:52.686Z,35.14
2016-04-14T07:39:52.658Z,35.63
2016-04-14T07:40:52.598Z,35.14
2016-04-14T07:41:55.572Z,35.05
2016-04-14T07:42:52.556Z,34.86
2016-04-14T07:43:55.514Z,34.95
2016-04-14T07:44:55.424Z,34.95
2016-04-14T07:45:52.361Z,34.86
2016-04-14T07:46:52.301Z,35.05
2016-04-14T07:47:52.257Z,35.34
2016-04-14T07:48:52.431Z,35.05
2016-04-14T07:49:52.184Z,35.14
2016-04-14T07:50:52.124Z,35.14
2016-04-14T07:51:52.079Z,35.14
2016-04-14T07:52:52.021Z,35.14
2016-04-14T07:53:51.976Z,35.14
2016-04-14T07:54:51.932Z,35.05
2016-04-14T07:55:51.888Z,35.24
2016-04-14T07:56:51.843Z,35.63
2016-04-14T07:57:51.799Z,35.24
2016-04-14T07:58:51.770Z,35.72
2016-04-14T07:59:51.711Z,35.63
2016-04-14T08:00:51.650Z,35.63
2016-04-14T08:01:51.606Z,35.71
2016-04-14T08:02:51.578Z,35.63
2016-04-14T08:03:51.534Z,35.24
2016-04-14T08:04:51.678Z,35.63
2016-04-14T08:05:51.414Z,35.63
2016-04-14T08:06:51.605Z,35.63
2016-04-14T08:07:51.326Z,35.34
2016-04-14T08:08:51.325Z,35.72
2016-04-14T08:09:54.434Z,35.63
2016-04-14T08:10:51.200Z,35.53
2016-04-14T08:11:51.156Z,35.61
2016-04-14T08:12:57.098Z,35.43
2016-04-14T08:13:51.051Z,35.61
2016-04-14T08:14:54.023Z,35.53
2016-04-14T08:15:51.025Z,35.63
2016-04-14T08:16:53.903Z,35.53
2016-04-14T08:17:50.906Z,35.43
2016-04-14T08:18:50.800Z,35.42
2016-04-14T08:19:51.333Z,35.61
2016-04-14T08:20:50.711Z,35.42
2016-04-14T08:21:53.682Z,35.63
2016-04-14T08:22:50.685Z,35.63
2016-04-14T08:23:50.594Z,35.63
2016-04-14T08:24:50.533Z,35.61
2016-04-14T08:25:50.505Z,35.61
2016-04-14T08:26:50.913Z,35.61
2016-04-14T08:27:50.416Z,35.42
2016-04-14T08:28:50.435Z,35.42
2016-04-14T08:29:50.297Z,35.72
2016-04-14T08:30:50.254Z,35.51
2016-04-14T08:31:50.224Z,35.71
2016-04-14T08:32:50.196Z,35.51
2016-04-14T08:33:50.121Z,35.51
2016-04-14T08:34:50.045Z,35.42
2016-04-14T08:35:50.032Z,35.51
2016-04-14T08:36:49.980Z,35.61
2016-04-14T08:37:49.920Z,35.51
2016-04-14T08:38:49.876Z,35.61
2016-04-14T08:39:49.832Z,35.51
2016-04-14T08:40:49.788Z,35.42
2016-04-14T08:41:49.728Z,35.51
2016-04-14T08:42:49.668Z,35.53
2016-04-14T08:43:49.640Z,35.43
2016-04-14T08:44:52.658Z,35.43
2016-04-14T08:45:49.536Z,35.42
2016-04-14T08:46:49.522Z,35.63
2016-04-14T08:47:49.447Z,35.51
2016-04-14T08:48:49.403Z,35.72
2016-04-14T08:49:49.561Z,35.14
2016-04-14T08:50:49.299Z,35.34
2016-04-14T08:51:49.254Z,35.63
2016-04-14T08:52:49.210Z,35.24
2016-04-14T08:53:49.197Z,35.63
2016-04-14T08:54:49.107Z,35.63
2016-04-14T08:55:52.266Z,35.53
2016-04-14T08:56:49.127Z,35.34
2016-04-14T08:57:48.818Z,35.14
2016-04-14T08:58:48.960Z,35.05
2016-04-14T08:59:51.979Z,35.14
2016-04-14T09:00:48.826Z,35.24
2016-04-14T09:01:49.063Z,35.72
2016-04-14T09:02:48.910Z,35.63
2016-04-14T09:03:48.929Z,35.63
2016-04-14T09:04:48.915Z,35.53
2016-04-14T09:05:48.621Z,35.63
2016-04-14T09:06:48.624Z,35.43
2016-04-14T09:07:49.110Z,35.53
2016-04-14T09:08:48.473Z,35.53
2016-04-14T09:09:48.428Z,35.63
2016-04-14T09:10:48.368Z,35.63
2016-04-14T09:11:48.370Z,35.63
2016-04-14T09:12:48.295Z,35.43
2016-04-14T09:13:48.251Z,35.51
2016-04-14T09:14:48.222Z,35.61
2016-04-14T09:15:48.507Z,35.51
2016-04-14T09:16:48.072Z,35.42
2016-04-14T09:17:48.075Z,35.63
2016-04-14T09:18:48.015Z,35.72
2016-04-14T09:19:47.955Z,35.63
2016-04-14T09:20:47.911Z,35.42
2016-04-14T09:21:47.851Z,35.63
2016-04-14T09:22:47.807Z,35.63
2016-04-14T09:23:50.762Z,35.63
2016-04-14T09:24:47.718Z,35.24
2016-04-14T09:25:47.658Z,35.72
2016-04-14T09:26:50.771Z,35.53
2016-04-14T09:27:47.570Z,35.71
2016-04-14T09:28:47.589Z,35.71
2016-04-14T09:29:47.466Z,35.71
2016-04-14T09:30:47.438Z,35.61
2016-04-14T09:31:47.378Z,35.71
2016-04-14T09:32:47.334Z,35.22
2016-04-14T09:33:47.587Z,35.72
2016-04-14T09:34:47.386Z,35.13
2016-04-14T09:35:47.201Z,35.22
2016-04-14T09:36:47.157Z,35.13
2016-04-14T09:37:47.098Z,35.22
2016-04-14T09:38:47.054Z,35.22
2016-04-14T09:39:47.040Z,35.22
2016-04-14T09:40:48.778Z,35.32
2016-04-14T09:41:46.920Z,35.13
2016-04-14T09:42:46.861Z,35.03
2016-04-14T09:43:46.831Z,35.14
2016-04-14T09:44:46.772Z,35.13
2016-04-14T09:45:46.744Z,35.13
2016-04-14T09:46:49.683Z,35.13
2016-04-14T09:47:46.655Z,35.13
2016-04-14T09:48:46.580Z,35.14
2016-04-14T09:49:46.552Z,35.13
2016-04-14T09:50:46.757Z,34.94
2016-04-14T09:51:46.432Z,34.95
2016-04-14T09:52:46.450Z,35.05
2016-04-14T09:53:46.343Z,34.94
2016-04-14T09:54:46.315Z,34.95
2016-04-14T09:55:46.254Z,34.86
2016-04-14T09:56:46.210Z,34.95
2016-04-14T09:57:46.166Z,34.86
2016-04-14T09:58:46.201Z,34.95
2016-04-14T09:59:46.109Z,34.95
2016-04-14T10:00:46.034Z,34.86
2016-04-14T10:01:46.052Z,34.95
2016-04-14T10:02:45.930Z,35.05
2016-04-14T10:03:46.167Z,34.94
2016-04-14T10:04:46.045Z,34.95
2016-04-14T10:05:46.001Z,35.43
2016-04-14T10:06:45.737Z,35.43
2016-04-14T10:07:45.710Z,35.63
2016-04-14T10:08:45.649Z,34.76
2016-04-14T10:09:45.621Z,35.43
2016-04-14T10:10:45.577Z,35.63
2016-04-14T10:11:45.501Z,35.53
2016-04-14T10:12:45.473Z,35.63
2016-04-14T10:13:45.428Z,35.63
2016-04-14T10:14:45.353Z,34.86
2016-04-14T10:15:45.339Z,34.86
2016-04-14T10:16:45.467Z,35.53
2016-04-14T10:17:45.205Z,35.53
2016-04-14T10:18:45.176Z,35.53
2016-04-14T10:19:45.117Z,34.95
2016-04-14T10:20:48.088Z,34.95
2016-04-14T10:21:48.309Z,34.95
2016-04-14T10:22:45.186Z,34.76
2016-04-14T10:23:45.174Z,34.76
2016-04-14T10:24:44.927Z,34.95
2016-04-14T10:25:44.851Z,34.95
2016-04-14T10:26:44.807Z,34.86
2016-04-14T10:27:47.762Z,35.63
2016-04-14T10:28:44.890Z,35.63
2016-04-14T10:29:44.846Z,35.63
2016-04-14T10:30:44.630Z,35.24
2016-04-14T10:31:44.571Z,35.24
2016-04-14T10:32:44.542Z,34.95
2016-04-14T10:33:44.451Z,35.14
2016-04-14T10:34:44.407Z,35.53
2016-04-14T10:35:44.362Z,34.94
2016-04-14T10:36:44.319Z,34.84
2016-04-14T10:37:44.321Z,34.94
2016-04-14T10:38:44.246Z,35.51
2016-04-14T10:39:47.187Z,34.95
2016-04-14T10:40:44.142Z,34.86
2016-04-14T10:41:44.082Z,35.24
2016-04-14T10:42:44.069Z,35.14
2016-04-14T10:43:44.212Z,35.03
2016-04-14T10:44:43.949Z,35.13
2016-04-14T10:45:43.906Z,34.86
2016-04-14T10:46:43.876Z,35.14
2016-04-14T10:47:43.848Z,34.86
2016-04-14T10:48:43.773Z,34.95
2016-04-14T10:49:43.744Z,34.86
2016-04-14T10:50:43.684Z,34.95
2016-04-14T10:51:43.624Z,34.75
2016-04-14T10:52:43.580Z,35.13
2016-04-14T10:53:43.535Z,34.84
2016-04-14T10:54:43.476Z,34.95
2016-04-14T10:55:43.447Z,35.03
2016-04-14T10:56:43.435Z,34.95
2016-04-14T10:57:43.375Z,34.94
2016-04-14T10:58:43.674Z,34.67
2016-04-14T10:59:43.380Z,35.14
2016-04-14T11:00:43.226Z,34.94
2016-04-14T11:01:46.151Z,34.94
2016-04-14T11:02:43.138Z,35.42
2016-04-14T11:03:43.094Z,35.51
2016-04-14T11:04:43.035Z,35.03
2016-04-14T11:05:42.850Z,35.32
2016-04-14T11:06:42.899Z,35.05
2016-04-14T11:07:42.871Z,34.76
2016-04-14T11:08:42.810Z,35.05
2016-04-14T11:09:42.782Z,34.86
2016-04-14T11:10:45.051Z,34.95
2016-04-14T11:11:42.678Z,34.76
2016-04-14T11:12:42.634Z,34.57
2016-04-14T11:13:42.589Z,34.38
2016-04-14T11:14:42.593Z,34.09
2016-04-14T11:15:42.704Z,33.8
2016-04-14T11:16:42.457Z,33.61
2016-04-14T11:17:42.413Z,32.84
2016-04-14T11:18:42.431Z,32.84
2016-04-14T11:19:45.465Z,32.26
2016-04-14T11:20:42.280Z,32.36
2016-04-14T11:21:42.267Z,32.26
2016-04-14T11:22:42.426Z,32.06
2016-04-14T11:23:42.116Z,31.98
2016-04-14T11:24:42.072Z,31.88
2016-04-14T11:25:42.075Z,31.88
2016-04-14T11:26:41.984Z,32.36
2016-04-14T11:27:44.955Z,32.55
2016-04-14T11:28:41.880Z,32.64
2016-04-14T11:29:41.820Z,32.44
2016-04-14T11:30:41.776Z,32.25
2016-04-14T11:31:44.732Z,32.26
2016-04-14T11:32:41.704Z,32.36
2016-04-14T11:33:41.691Z,32.07
2016-04-14T11:34:41.598Z,32.07
2016-04-14T11:35:44.570Z,32.17
2016-04-14T11:36:41.495Z,32.07
2016-04-14T11:37:41.372Z,31.49
2016-04-14T11:38:41.640Z,31.79
2016-04-14T11:39:41.346Z,31.88
2016-04-14T11:40:41.317Z,31.69
2016-04-14T11:41:41.289Z,31.3
2016-04-14T11:42:41.245Z,31.02
2016-04-14T11:43:41.201Z,30.63
2016-04-14T11:44:41.141Z,30.44
2016-04-14T11:45:41.097Z,31.3
2016-04-14T11:46:41.068Z,31.3
2016-04-14T11:47:40.977Z,31.1
2016-04-14T11:48:43.949Z,30.73
2016-04-14T11:49:40.998Z,31.21
2016-04-14T11:50:43.849Z,31.21
2016-04-14T11:51:40.837Z,31.02
2016-04-14T11:52:40.761Z,31.02
2016-04-14T11:53:40.701Z,30.63
2016-04-14T11:54:40.735Z,30.92
2016-04-14T11:55:40.629Z,30.92
2016-04-14T11:56:40.568Z,30.82
2016-04-14T11:57:40.571Z,30.82
2016-04-14T11:58:40.464Z,30.63
2016-04-14T11:59:40.420Z,30.73
2016-04-14T12:00:40.376Z,30.82
2016-04-14T12:01:40.317Z,31.49
2016-04-14T12:02:40.273Z,31.69
2016-04-14T12:03:40.259Z,31.3
2016-04-14T12:04:40.215Z,31.02
2016-04-14T12:05:40.139Z,31.02
2016-04-14T12:06:40.127Z,31.02
2016-04-14T12:07:40.114Z,30.82
2016-04-14T12:08:40.022Z,30.92
2016-04-14T12:09:39.978Z,30.82
2016-04-14T12:10:42.980Z,30.63
2016-04-14T12:11:39.859Z,30.63
2016-04-14T12:12:39.830Z,30.82
2016-04-14T12:13:39.771Z,30.92
2016-04-14T12:14:39.773Z,31.21
2016-04-14T12:15:39.697Z,31.11
2016-04-14T12:16:39.638Z,30.92
2016-04-14T12:17:39.578Z,30.82
2016-04-14T12:18:39.566Z,30.73
2016-04-14T12:19:39.552Z,30.82
2016-04-14T12:20:39.446Z,30.73
2016-04-14T12:21:39.417Z,30.63
2016-04-14T12:22:39.545Z,30.54
2016-04-14T12:23:39.594Z,30.63
2016-04-14T12:24:39.268Z,30.25
2016-04-14T12:25:39.224Z,30.54
2016-04-14T12:26:39.149Z,30.35
2016-04-14T12:27:39.120Z,30.44
2016-04-14T12:28:39.062Z,30.63
2016-04-14T12:29:39.017Z,30.25
2016-04-14T12:30:38.988Z,30.35
2016-04-14T12:31:39.022Z,30.44
2016-04-14T12:32:38.900Z,30.15
2016-04-14T12:33:38.840Z,30.35
2016-04-14T12:34:39.061Z,30.25
2016-04-14T12:35:38.767Z,30.25
2016-04-14T12:36:38.800Z,30.35
2016-04-14T12:37:38.772Z,30.63
2016-04-14T12:38:38.963Z,30.55
2016-04-14T12:39:41.591Z,30.74
2016-04-14T12:40:38.578Z,30.55
2016-04-14T12:41:38.455Z,30.26
2016-04-14T12:42:38.974Z,30.65
2016-04-14T12:43:38.366Z,30.46
2016-04-14T12:44:38.322Z,30.46
2016-04-14T12:45:38.372Z,30.17
2016-04-14T12:46:38.235Z,30.07
2016-04-14T12:47:38.191Z,30.26
2016-04-14T12:48:38.208Z,30.17
2016-04-14T12:49:38.102Z,30.36
2016-04-14T12:50:38.041Z,30.17
2016-04-14T12:51:38.076Z,30.65